sensor_id;sensor_type;location;lat;lon;timestamp;pressure;altitude;pressure_sealevel;temperature;humidity
68941;BME280;55982;51.476;7.552;2023-03-04T00:01:10;100612.53;;;3.50;100.00
68941;BME280;55982;51.476;7.552;2023-03-04T00:03:36;100620.25;;;3.44;100.00
68941;BME280;55982;51.476;7.552;2023-03-04T00:06:01;100611.66;;;3.48;100.00
68941;BME280;55982;51.476;7.552;2023-03-04T00:08:27;100616.84;;;3.50;100.00
68941;BME280;55982;51.476;7.552;2023-03-04T00:10:52;100613.41;;;3.52;100.00
68941;BME280;55982;51.476;7.552;2023-03-04T00:13:18;100608.25;;;3.55;100.00
68941;BME280;55982;51.476;7.552;2023-03-04T00:15:46;100608.31;;;3.58;100.00
68941;BME280;55982;51.476;7.552;2023-03-04T00:18:12;100617.81;;;3.62;100.00
68941;BME280;55982;51.476;7.552;2023-03-04T00:20:37;100609.19;;;3.59;100.00
68941;BME280;55982;51.476;7.552;2023-03-04T00:23:03;100608.34;;;3.66;100.00
68941;BME280;55982;51.476;7.552;2023-03-04T00:25:28;100606.63;;;3.66;100.00
68941;BME280;55982;51.476;7.552;2023-03-04T00:27:53;100610.06;;;3.62;100.00
68941;BME280;55982;51.476;7.552;2023-03-04T00:30:19;100614.28;;;3.51;100.00
68941;BME280;55982;51.476;7.552;2023-03-04T00:32:44;100615.22;;;3.62;100.00
68941;BME280;55982;51.476;7.552;2023-03-04T00:35:10;100607.41;;;3.56;100.00
68941;BME280;55982;51.476;7.552;2023-03-04T00:37:35;100600.50;;;3.54;100.00
68941;BME280;55982;51.476;7.552;2023-03-04T00:40:01;100597.97;;;3.61;100.00
68941;BME280;55982;51.476;7.552;2023-03-04T00:42:27;100610.81;;;3.49;100.00
68941;BME280;55982;51.476;7.552;2023-03-04T00:44:52;100596.19;;;3.57;100.00
68941;BME280;55982;51.476;7.552;2023-03-04T00:47:19;100596.19;;;3.57;100.00
68941;BME280;55982;51.476;7.552;2023-03-04T00:49:44;100599.66;;;3.59;100.00
68941;BME280;55982;51.476;7.552;2023-03-04T00:52:10;100599.66;;;3.59;100.00
68941;BME280;55982;51.476;7.552;2023-03-04T00:54:35;100595.41;;;3.64;100.00
68941;BME280;55982;51.476;7.552;2023-03-04T00:57:00;100596.19;;;3.57;100.00
68941;BME280;55982;51.476;7.552;2023-03-04T00:59:26;100587.56;;;3.55;100.00
68941;BME280;55982;51.476;7.552;2023-03-04T01:01:51;100588.44;;;3.57;100.00
68941;BME280;55982;51.476;7.552;2023-03-04T01:04:17;100596.25;;;3.60;100.00
68941;BME280;55982;51.476;7.552;2023-03-04T01:06:42;100594.47;;;3.55;100.00
68941;BME280;55982;51.476;7.552;2023-03-04T01:09:08;100594.47;;;3.53;100.00
68941;BME280;55982;51.476;7.552;2023-03-04T01:11:33;100587.56;;;3.55;100.00
68941;BME280;55982;51.476;7.552;2023-03-04T01:13:58;100587.66;;;3.64;100.00
68941;BME280;55982;51.476;7.552;2023-03-04T01:16:24;100588.53;;;3.66;100.00
68941;BME280;55982;51.476;7.552;2023-03-04T01:18:53;100583.34;;;3.68;100.00
68941;BME280;55982;51.476;7.552;2023-03-04T01:21:19;100592.78;;;3.61;100.00
68941;BME280;55982;51.476;7.552;2023-03-04T01:23:44;100588.50;;;3.62;100.00
68941;BME280;55982;51.476;7.552;2023-03-04T01:26:10;100581.50;;;3.52;100.00
68941;BME280;55982;51.476;7.552;2023-03-04T01:28:35;100577.22;;;3.52;100.00
68941;BME280;55982;51.476;7.552;2023-03-04T01:31:02;100575.56;;;3.63;100.00
68941;BME280;55982;51.476;7.552;2023-03-04T01:33:29;100569.56;;;3.69;100.00
68941;BME280;55982;51.476;7.552;2023-03-04T01:35:54;100567.88;;;3.79;100.00
68941;BME280;55982;51.476;7.552;2023-03-04T01:38:21;100566.13;;;3.70;100.00
68941;BME280;55982;51.476;7.552;2023-03-04T01:40:46;100565.28;;;3.76;100.00
68941;BME280;55982;51.476;7.552;2023-03-04T01:43:21;100560.13;;;3.72;100.00
68941;BME280;55982;51.476;7.552;2023-03-04T01:45:49;100561.00;;;3.79;100.00
68941;BME280;55982;51.476;7.552;2023-03-04T01:48:18;100561.94;;;3.95;100.00
68941;BME280;55982;51.476;7.552;2023-03-04T01:50:45;100560.19;;;3.88;100.00
68941;BME280;55982;51.476;7.552;2023-03-04T01:53:20;100554.97;;;3.82;100.00
68941;BME280;55982;51.476;7.552;2023-03-04T01:55:47;100559.31;;;3.87;100.00
68941;BME280;55982;51.476;7.552;2023-03-04T01:58:13;100558.44;;;3.84;100.00
68941;BME280;55982;51.476;7.552;2023-03-04T02:00:39;100559.31;;;3.84;100.00
68941;BME280;55982;51.476;7.552;2023-03-04T02:03:10;100560.16;;;3.82;100.00
68941;BME280;55982;51.476;7.552;2023-03-04T02:05:40;100548.97;;;3.87;100.00
68941;BME280;55982;51.476;7.552;2023-03-04T02:08:09;100553.28;;;3.85;100.00
68941;BME280;55982;51.476;7.552;2023-03-04T02:10:36;100552.44;;;3.89;100.00
68941;BME280;55982;51.476;7.552;2023-03-04T02:13:02;100541.25;;;3.95;100.00
68941;BME280;55982;51.476;7.552;2023-03-04T02:15:29;100544.72;;;3.95;100.00
68941;BME280;55982;51.476;7.552;2023-03-04T02:17:54;100549.03;;;4.02;100.00
68941;BME280;55982;51.476;7.552;2023-03-04T02:25:38;100539.59;;;4.12;100.00
68941;BME280;55982;51.476;7.552;2023-03-04T02:28:07;100541.25;;;3.95;100.00
68941;BME280;55982;51.476;7.552;2023-03-04T02:30:32;100536.06;;;3.92;100.00
68941;BME280;55982;51.476;7.552;2023-03-04T02:32:59;100539.53;;;4.00;100.00
68941;BME280;55982;51.476;7.552;2023-03-04T02:35:24;100537.81;;;4.02;100.00
68941;BME280;55982;51.476;7.552;2023-03-04T02:37:50;100536.06;;;3.95;100.00
68941;BME280;55982;51.476;7.552;2023-03-04T02:40:28;100537.81;;;3.96;100.00
68941;BME280;55982;51.476;7.552;2023-03-04T02:42:57;100532.69;;;4.11;100.00
68941;BME280;55982;51.476;7.552;2023-03-04T02:45:36;100530.94;;;4.04;100.00
68941;BME280;55982;51.476;7.552;2023-03-04T02:48:03;100524.03;;;4.06;100.00
68941;BME280;55982;51.476;7.552;2023-03-04T02:50:32;100530.97;;;4.07;100.00
68941;BME280;55982;51.476;7.552;2023-03-04T02:52:57;100523.22;;;4.17;100.00
68941;BME280;55982;51.476;7.552;2023-03-04T02:55:22;100529.25;;;4.12;100.00
68941;BME280;55982;51.476;7.552;2023-03-04T02:57:48;100523.22;;;4.19;100.00
68941;BME280;55982;51.476;7.552;2023-03-04T03:00:13;100524.97;;;4.18;100.00
68941;BME280;55982;51.476;7.552;2023-03-04T03:02:39;100510.25;;;4.10;100.00
68941;BME280;55982;51.476;7.552;2023-03-04T03:05:05;100515.41;;;4.10;100.00
68941;BME280;55982;51.476;7.552;2023-03-04T03:07:31;100518.84;;;4.06;100.00
68941;BME280;55982;51.476;7.552;2023-03-04T03:09:59;100510.25;;;4.07;100.00
68941;BME280;55982;51.476;7.552;2023-03-04T03:12:24;100514.59;;;4.11;100.00
68941;BME280;55982;51.476;7.552;2023-03-04T03:14:49;100509.41;;;4.14;100.00
68941;BME280;55982;51.476;7.552;2023-03-04T03:17:15;100504.25;;;4.18;100.00
68941;BME280;55982;51.476;7.552;2023-03-04T03:19:40;100501.66;;;4.17;100.00
68941;BME280;55982;51.476;7.552;2023-03-04T03:22:06;100500.75;;;4.10;100.00
68941;BME280;55982;51.476;7.552;2023-03-04T03:24:31;100499.91;;;4.16;100.00
68941;BME280;55982;51.476;7.552;2023-03-04T03:26:56;100498.16;;;4.06;100.00
68941;BME280;55982;51.476;7.552;2023-03-04T03:29:22;100498.19;;;4.18;100.00
68941;BME280;55982;51.476;7.552;2023-03-04T03:31:47;100504.22;;;4.11;100.00
68941;BME280;55982;51.476;7.552;2023-03-04T03:34:12;100501.56;;;4.00;100.00
68941;BME280;55982;51.476;7.552;2023-03-04T03:36:38;100495.59;;;4.07;100.00
68941;BME280;55982;51.476;7.552;2023-03-04T03:39:03;100498.13;;;4.00;100.00
68941;BME280;55982;51.476;7.552;2023-03-04T03:41:29;100494.75;;;4.13;100.00
68941;BME280;55982;51.476;7.552;2023-03-04T03:43:55;100489.53;;;4.07;100.00
68941;BME280;55982;51.476;7.552;2023-03-04T03:46:21;100501.56;;;4.02;100.00
68941;BME280;55982;51.476;7.552;2023-03-04T03:48:46;100496.44;;;4.14;100.00
68941;BME280;55982;51.476;7.552;2023-03-04T03:51:12;100499.03;;;4.11;100.00
68941;BME280;55982;51.476;7.552;2023-03-04T03:53:37;100496.44;;;4.05;100.00
68941;BME280;55982;51.476;7.552;2023-03-04T03:56:03;100493.88;;;4.11;100.00
68941;BME280;55982;51.476;7.552;2023-03-04T03:58:28;100494.69;;;4.04;100.00
68941;BME280;55982;51.476;7.552;2023-03-04T04:00:54;100494.66;;;3.98;100.00
68941;BME280;55982;51.476;7.552;2023-03-04T04:03:19;100496.41;;;4.02;100.00
68941;BME280;55982;51.476;7.552;2023-03-04T04:05:45;100499.91;;;4.07;100.00
68941;BME280;55982;51.476;7.552;2023-03-04T04:08:13;100490.41;;;4.07;100.00
68941;BME280;55982;51.476;7.552;2023-03-04T04:10:39;100489.53;;;4.10;100.00
68941;BME280;55982;51.476;7.552;2023-03-04T04:13:05;100489.53;;;4.10;100.00
68941;BME280;55982;51.476;7.552;2023-03-04T04:15:30;100492.97;;;4.06;100.00
68941;BME280;55982;51.476;7.552;2023-03-04T04:17:55;100489.50;;;4.04;100.00
68941;BME280;55982;51.476;7.552;2023-03-04T04:20:21;100489.50;;;4.01;100.00
68941;BME280;55982;51.476;7.552;2023-03-04T04:22:46;100482.59;;;3.94;100.00
68941;BME280;55982;51.476;7.552;2023-03-04T04:25:12;100488.63;;;3.99;100.00
68941;BME280;55982;51.476;7.552;2023-03-04T04:27:37;100487.81;;;4.07;100.00
68941;BME280;55982;51.476;7.552;2023-03-04T04:30:03;100486.06;;;4.05;100.00
68941;BME280;55982;51.476;7.552;2023-03-04T04:32:29;100486.94;;;4.05;100.00
68941;BME280;55982;51.476;7.552;2023-03-04T04:34:54;100487.81;;;4.09;100.00
68941;BME280;55982;51.476;7.552;2023-03-04T04:37:20;100492.13;;;4.11;100.00
68941;BME280;55982;51.476;7.552;2023-03-04T04:39:45;100486.09;;;4.14;100.00
68941;BME280;55982;51.476;7.552;2023-03-04T04:42:10;100486.94;;;4.05;100.00
68941;BME280;55982;51.476;7.552;2023-03-04T04:44:36;100489.53;;;4.07;100.00
68941;BME280;55982;51.476;7.552;2023-03-04T04:47:03;100501.56;;;4.02;100.00
68941;BME280;55982;51.476;7.552;2023-03-04T04:49:30;100490.38;;;4.01;100.00
68941;BME280;55982;51.476;7.552;2023-03-04T04:51:56;100493.00;;;4.09;100.00
68941;BME280;55982;51.476;7.552;2023-03-04T04:54:21;100493.00;;;4.12;100.00
68941;BME280;55982;51.476;7.552;2023-03-04T04:56:47;100498.16;;;4.06;100.00
68941;BME280;55982;51.476;7.552;2023-03-04T04:59:13;100492.06;;;3.95;100.00
68941;BME280;55982;51.476;7.552;2023-03-04T05:01:38;100493.84;;;4.03;100.00
68941;BME280;55982;51.476;7.552;2023-03-04T05:04:04;100495.53;;;3.97;100.00
68941;BME280;55982;51.476;7.552;2023-03-04T05:06:29;100499.88;;;4.01;100.00
68941;BME280;55982;51.476;7.552;2023-03-04T05:08:54;100496.41;;;4.02;100.00
68941;BME280;55982;51.476;7.552;2023-03-04T05:11:20;100499.06;;;4.20;100.00
68941;BME280;55982;51.476;7.552;2023-03-04T05:13:47;100498.19;;;4.09;100.00
68941;BME280;55982;51.476;7.552;2023-03-04T05:16:13;100497.31;;;4.11;100.00
68941;BME280;55982;51.476;7.552;2023-03-04T05:18:39;100493.84;;;4.09;100.00
68941;BME280;55982;51.476;7.552;2023-03-04T05:21:05;100489.56;;;4.13;100.00
68941;BME280;55982;51.476;7.552;2023-03-04T05:23:33;100483.50;;;4.11;100.00
68941;BME280;55982;51.476;7.552;2023-03-04T05:26:00;100494.72;;;4.11;100.00
68941;BME280;55982;51.476;7.552;2023-03-04T05:28:25;100486.06;;;4.09;100.00
68941;BME280;55982;51.476;7.552;2023-03-04T05:30:51;100486.06;;;4.08;100.00
68941;BME280;55982;51.476;7.552;2023-03-04T05:33:17;100485.22;;;4.10;100.00
68941;BME280;55982;51.476;7.552;2023-03-04T05:35:44;100484.38;;;4.13;100.00
68941;BME280;55982;51.476;7.552;2023-03-04T05:38:11;100480.94;;;4.17;100.00
68941;BME280;55982;51.476;7.552;2023-03-04T05:40:38;100486.97;;;4.13;100.00
68941;BME280;55982;51.476;7.552;2023-03-04T05:43:03;100487.84;;;4.18;100.00
68941;BME280;55982;51.476;7.552;2023-03-04T05:45:29;100488.66;;;4.08;100.00
68941;BME280;55982;51.476;7.552;2023-03-04T05:47:54;100487.81;;;4.12;100.00
68941;BME280;55982;51.476;7.552;2023-03-04T05:50:21;100493.00;;;4.12;100.00
68941;BME280;55982;51.476;7.552;2023-03-04T05:52:47;100487.78;;;4.03;100.00
68941;BME280;55982;51.476;7.552;2023-03-04T05:55:13;100495.59;;;4.09;100.00
68941;BME280;55982;51.476;7.552;2023-03-04T05:57:38;100501.63;;;4.14;100.00
68941;BME280;55982;51.476;7.552;2023-03-04T06:00:05;100493.00;;;4.09;100.00
68941;BME280;55982;51.476;7.552;2023-03-04T06:02:34;100495.59;;;4.18;100.00
68941;BME280;55982;51.476;7.552;2023-03-04T06:04:59;100494.72;;;4.19;100.00
68941;BME280;55982;51.476;7.552;2023-03-04T06:07:25;100493.88;;;4.14;100.00
68941;BME280;55982;51.476;7.552;2023-03-04T06:09:50;100501.63;;;4.14;100.00
68941;BME280;55982;51.476;7.552;2023-03-04T06:12:15;100503.34;;;4.09;100.00
68941;BME280;55982;51.476;7.552;2023-03-04T06:14:41;100508.53;;;4.09;100.00
68941;BME280;55982;51.476;7.552;2023-03-04T06:17:06;100513.72;;;4.09;100.00
68941;BME280;55982;51.476;7.552;2023-03-04T06:19:31;100510.28;;;4.16;100.00
68941;BME280;55982;51.476;7.552;2023-03-04T06:21:57;100518.03;;;4.16;100.00
68941;BME280;55982;51.476;7.552;2023-03-04T06:24:23;100514.59;;;4.21;100.00
68941;BME280;55982;51.476;7.552;2023-03-04T06:26:48;100519.78;;;4.17;100.00
68941;BME280;55982;51.476;7.552;2023-03-04T06:29:14;100505.94;;;4.09;100.00
68941;BME280;55982;51.476;7.552;2023-03-04T06:31:39;100518.03;;;4.13;100.00
68941;BME280;55982;51.476;7.552;2023-03-04T06:34:07;100523.22;;;4.19;100.00
68941;BME280;55982;51.476;7.552;2023-03-04T06:36:32;100519.75;;;4.14;100.00
68941;BME280;55982;51.476;7.552;2023-03-04T06:38:58;100525.84;;;4.22;100.00
68941;BME280;55982;51.476;7.552;2023-03-04T06:41:23;100522.38;;;4.23;100.00
68941;BME280;55982;51.476;7.552;2023-03-04T06:43:49;100525.88;;;4.28;100.00
68941;BME280;55982;51.476;7.552;2023-03-04T06:46:17;100524.97;;;4.21;100.00
68941;BME280;55982;51.476;7.552;2023-03-04T06:48:42;100524.97;;;4.29;100.00
68941;BME280;55982;51.476;7.552;2023-03-04T06:51:09;100526.72;;;4.30;100.00
68941;BME280;55982;51.476;7.552;2023-03-04T06:53:35;100525.84;;;4.23;100.00
68941;BME280;55982;51.476;7.552;2023-03-04T06:56:00;100534.53;;;4.36;100.00
68941;BME280;55982;51.476;7.552;2023-03-04T06:58:26;100526.72;;;4.28;100.00
68941;BME280;55982;51.476;7.552;2023-03-04T07:00:51;100535.34;;;4.30;100.00
68941;BME280;55982;51.476;7.552;2023-03-04T07:03:17;100540.56;;;4.35;100.00
68941;BME280;55982;51.476;7.552;2023-03-04T07:05:42;100538.00;;;4.47;100.00
68941;BME280;55982;51.476;7.552;2023-03-04T07:08:08;100536.28;;;4.52;100.00
68941;BME280;55982;51.476;7.552;2023-03-04T07:10:33;100538.84;;;4.41;100.00
68941;BME280;55982;51.476;7.552;2023-03-04T07:12:59;100525.88;;;4.37;100.00
68941;BME280;55982;51.476;7.552;2023-03-04T07:15:24;100538.00;;;4.47;100.00
68941;BME280;55982;51.476;7.552;2023-03-04T07:17:49;100535.44;;;4.62;100.00
68941;BME280;55982;51.476;7.552;2023-03-04T07:20:15;100536.31;;;4.55;100.00
68941;BME280;55982;51.476;7.552;2023-03-04T07:22:40;100536.31;;;4.73;100.00
68941;BME280;55982;51.476;7.552;2023-03-04T07:25:06;100543.25;;;4.68;100.00
68941;BME280;55982;51.476;7.552;2023-03-04T07:27:32;100541.50;;;4.64;100.00
68941;BME280;55982;51.476;7.552;2023-03-04T07:29:57;100540.63;;;4.63;100.00
68941;BME280;55982;51.476;7.552;2023-03-04T07:32:23;100547.53;;;4.63;100.00
68941;BME280;55982;51.476;7.552;2023-03-04T07:34:48;100555.34;;;4.72;100.00
68941;BME280;55982;51.476;7.552;2023-03-04T07:37:13;100561.38;;;4.67;100.00
68941;BME280;55982;51.476;7.552;2023-03-04T07:39:39;100557.94;;;4.72;100.00
68941;BME280;55982;51.476;7.552;2023-03-04T07:42:04;100560.50;;;4.60;100.00
68941;BME280;55982;51.476;7.552;2023-03-04T07:44:29;100559.63;;;4.59;100.00
68941;BME280;55982;51.476;7.552;2023-03-04T07:46:55;100563.09;;;4.66;100.00
68941;BME280;55982;51.476;7.552;2023-03-04T07:49:20;100562.22;;;4.55;100.00
68941;BME280;55982;51.476;7.552;2023-03-04T07:51:46;100555.31;;;4.60;100.00
68941;BME280;55982;51.476;7.552;2023-03-04T07:54:11;100558.78;;;4.60;100.00
68941;BME280;55982;51.476;7.552;2023-03-04T07:56:37;100558.78;;;4.62;100.00
68941;BME280;55982;51.476;7.552;2023-03-04T07:59:03;100550.16;;;4.81;100.00
68941;BME280;55982;51.476;7.552;2023-03-04T08:01:34;100562.28;;;5.09;100.00
68941;BME280;55982;51.476;7.552;2023-03-04T08:04:00;100558.00;;;5.35;100.00
68941;BME280;55982;51.476;7.552;2023-03-04T08:06:27;100551.91;;;5.61;100.00
68941;BME280;55982;51.476;7.552;2023-03-04T08:09:12;100555.34;;;5.78;100.00
68941;BME280;55982;51.476;7.552;2023-03-04T08:11:38;100549.31;;;5.68;100.00
68941;BME280;55982;51.476;7.552;2023-03-04T08:14:03;100548.44;;;5.62;100.00
68941;BME280;55982;51.476;7.552;2023-03-04T08:16:29;100546.69;;;5.70;100.00
68941;BME280;55982;51.476;7.552;2023-03-04T08:18:57;100550.19;;;5.84;100.00
68941;BME280;55982;51.476;7.552;2023-03-04T08:21:23;100544.88;;;6.14;100.00
68941;BME280;55982;51.476;7.552;2023-03-04T08:23:50;100544.84;;;6.26;100.00
68941;BME280;55982;51.476;7.552;2023-03-04T08:26:27;100549.75;;;6.77;100.00
68941;BME280;55982;51.476;7.552;2023-03-04T08:28:55;100540.56;;;7.41;100.00
68941;BME280;55982;51.476;7.552;2023-03-04T08:31:21;100526.53;;;7.61;100.00
68941;BME280;55982;51.476;7.552;2023-03-04T08:33:46;100526.78;;;7.30;100.00
68941;BME280;55982;51.476;7.552;2023-03-04T08:36:12;100530.94;;;7.53;100.00
68941;BME280;55982;51.476;7.552;2023-03-04T08:38:38;100536.06;;;8.38;100.00
68941;BME280;55982;51.476;7.552;2023-03-04T08:41:04;100528.13;;;9.07;100.00
68941;BME280;55982;51.476;7.552;2023-03-04T08:43:30;100528.50;;;8.83;100.00
68941;BME280;55982;51.476;7.552;2023-03-04T08:45:56;100524.22;;;8.11;100.00
68941;BME280;55982;51.476;7.552;2023-03-04T08:48:21;100524.38;;;7.99;100.00
68941;BME280;55982;51.476;7.552;2023-03-04T08:50:48;100526.50;;;7.62;100.00
68941;BME280;55982;51.476;7.552;2023-03-04T08:53:13;100522.88;;;6.81;100.00
68941;BME280;55982;51.476;7.552;2023-03-04T08:55:41;100531.19;;;7.22;100.00
68941;BME280;55982;51.476;7.552;2023-03-04T08:58:06;100534.72;;;7.17;100.00
68941;BME280;55982;51.476;7.552;2023-03-04T09:00:40;100525.16;;;7.20;100.00
68941;BME280;55982;51.476;7.552;2023-03-04T09:03:12;100529.41;;;7.29;100.00
68941;BME280;55982;51.476;7.552;2023-03-04T09:05:38;100528.88;;;6.89;100.00
68941;BME280;55982;51.476;7.552;2023-03-04T09:08:03;100524.59;;;6.81;100.00
68941;BME280;55982;51.476;7.552;2023-03-04T09:10:29;100529.00;;;6.71;100.00
68941;BME280;55982;51.476;7.552;2023-03-04T09:12:54;100529.13;;;6.53;100.00
68941;BME280;55982;51.476;7.552;2023-03-04T09:15:20;100530.00;;;6.46;100.00
68941;BME280;55982;51.476;7.552;2023-03-04T09:17:45;100534.19;;;6.74;100.00
68941;BME280;55982;51.476;7.552;2023-03-04T09:20:12;100533.31;;;6.71;100.00
68941;BME280;55982;51.476;7.552;2023-03-04T09:22:38;100533.41;;;6.57;100.00
68941;BME280;55982;51.476;7.552;2023-03-04T09:25:06;100534.34;;;6.44;100.00
68941;BME280;55982;51.476;7.552;2023-03-04T09:27:31;100529.09;;;6.56;100.00
68941;BME280;55982;51.476;7.552;2023-03-04T09:29:57;100531.69;;;6.52;100.00
68941;BME280;55982;51.476;7.552;2023-03-04T09:32:22;100529.03;;;6.65;100.00
68941;BME280;55982;51.476;7.552;2023-03-04T09:34:48;100528.16;;;6.66;100.00
68941;BME280;55982;51.476;7.552;2023-03-04T09:37:13;100529.19;;;6.35;100.00
68941;BME280;55982;51.476;7.552;2023-03-04T09:39:39;100534.34;;;6.44;100.00
68941;BME280;55982;51.476;7.552;2023-03-04T09:42:07;100532.53;;;6.55;100.00
68941;BME280;55982;51.476;7.552;2023-03-04T09:44:36;100529.13;;;6.44;100.00
68941;BME280;55982;51.476;7.552;2023-03-04T09:47:05;100533.47;;;6.42;100.00
68941;BME280;55982;51.476;7.552;2023-03-04T09:49:32;100536.19;;;6.18;100.00
68941;BME280;55982;51.476;7.552;2023-03-04T09:52:09;100533.63;;;6.10;100.00
68941;BME280;55982;51.476;7.552;2023-03-04T09:57:59;100525.66;;;6.51;100.00
68941;BME280;55982;51.476;7.552;2023-03-04T10:00:31;100530.78;;;6.60;100.00
68941;BME280;55982;51.476;7.552;2023-03-04T10:06:01;100527.00;;;7.06;100.00
68941;BME280;55982;51.476;7.552;2023-03-04T10:13:58;100524.72;;;6.60;100.00
68941;BME280;55982;51.476;7.552;2023-03-04T10:16:30;100529.16;;;6.38;100.00
68941;BME280;55982;51.476;7.552;2023-03-04T10:19:17;100529.00;;;6.67;100.00
68941;BME280;55982;51.476;7.552;2023-03-04T10:21:45;100529.94;;;6.63;100.00
68941;BME280;55982;51.476;7.552;2023-03-04T10:24:13;100521.19;;;6.71;100.00
68941;BME280;55982;51.476;7.552;2023-03-04T10:26:43;100525.47;;;6.81;100.00
68941;BME280;55982;51.476;7.552;2023-03-04T10:29:22;100520.88;;;7.13;100.00
68941;BME280;55982;51.476;7.552;2023-03-04T10:31:49;100511.09;;;7.43;100.00
68941;BME280;55982;51.476;7.552;2023-03-04T10:34:16;100514.22;;;7.75;100.00
68941;BME280;55982;51.476;7.552;2023-03-04T10:36:58;100512.47;;;7.77;100.00
68941;BME280;55982;51.476;7.552;2023-03-04T10:39:27;100507.97;;;7.91;100.00
68941;BME280;55982;51.476;7.552;2023-03-04T10:42:24;100505.31;;;7.94;100.00
68941;BME280;55982;51.476;7.552;2023-03-04T10:44:56;100514.56;;;8.19;100.00
68941;BME280;55982;51.476;7.552;2023-03-04T10:47:30;100504.56;;;7.84;100.00
68941;BME280;55982;51.476;7.552;2023-03-04T10:49:59;100515.53;;;8.12;100.00
68941;BME280;55982;51.476;7.552;2023-03-04T10:52:32;100513.06;;;8.00;100.00
68941;BME280;55982;51.476;7.552;2023-03-04T10:55:02;100508.22;;;7.67;100.00
68941;BME280;55982;51.476;7.552;2023-03-04T10:57:36;100502.47;;;7.34;100.00
68941;BME280;55982;51.476;7.552;2023-03-04T11:00:29;100503.41;;;7.27;100.00
68941;BME280;55982;51.476;7.552;2023-03-04T11:03:22;100497.44;;;7.18;100.00
68941;BME280;55982;51.476;7.552;2023-03-04T11:05:49;100492.22;;;7.19;100.00
68941;BME280;55982;51.476;7.552;2023-03-04T11:08:22;100496.66;;;7.07;100.00
68941;BME280;55982;51.476;7.552;2023-03-04T11:10:49;100502.78;;;6.98;100.00
68941;BME280;55982;51.476;7.552;2023-03-04T11:13:24;100496.84;;;6.83;100.00
68941;BME280;55982;51.476;7.552;2023-03-04T11:16:00;100503.91;;;6.64;100.00
68941;BME280;55982;51.476;7.552;2023-03-04T11:18:43;100503.13;;;6.53;100.00
68941;BME280;55982;51.476;7.552;2023-03-04T11:21:16;100508.28;;;6.56;100.00
68941;BME280;55982;51.476;7.552;2023-03-04T11:23:47;100503.09;;;6.56;100.00
68941;BME280;55982;51.476;7.552;2023-03-04T11:26:27;100503.09;;;6.56;100.00
68941;BME280;55982;51.476;7.552;2023-03-04T11:31:28;100497.66;;;6.89;100.00
68941;BME280;55982;51.476;7.552;2023-03-04T11:36:34;100488.91;;;6.99;100.00
68941;BME280;55982;51.476;7.552;2023-03-04T11:39:04;100479.41;;;6.97;100.00
68941;BME280;55982;51.476;7.552;2023-03-04T11:41:39;100480.22;;;7.00;100.00
68941;BME280;55982;51.476;7.552;2023-03-04T11:44:07;100482.16;;;6.73;100.00
68941;BME280;55982;51.476;7.552;2023-03-04T11:46:45;100476.13;;;6.69;100.00
68941;BME280;55982;51.476;7.552;2023-03-04T11:49:54;100473.44;;;6.81;100.00
68941;BME280;55982;51.476;7.552;2023-03-04T11:52:43;100467.22;;;6.97;100.00
68941;BME280;55982;51.476;7.552;2023-03-04T12:06:10;100462.97;;;6.93;100.00
68941;BME280;55982;51.476;7.552;2023-03-04T12:08:44;100460.41;;;6.87;100.00
68941;BME280;55982;51.476;7.552;2023-03-04T12:14:19;100458.81;;;6.70;100.00
68941;BME280;55982;51.476;7.552;2023-03-04T12:20:18;100444.75;;;6.93;100.00
68941;BME280;55982;51.476;7.552;2023-03-04T12:22:40;100440.66;;;6.62;100.00
68941;BME280;55982;51.476;7.552;2023-03-04T12:25:21;100445.00;;;6.65;100.00
68941;BME280;55982;51.476;7.552;2023-03-04T12:41:50;100418.38;;;7.31;100.00
68941;BME280;55982;51.476;7.552;2023-03-04T12:44:20;100419.44;;;7.12;100.00
68941;BME280;55982;51.476;7.552;2023-03-04T12:50:27;100412.81;;;6.76;100.00
68941;BME280;55982;51.476;7.552;2023-03-04T12:53:05;100413.78;;;6.66;100.00
68941;BME280;55982;51.476;7.552;2023-03-04T12:55:41;100409.56;;;6.53;100.00
68941;BME280;55982;51.476;7.552;2023-03-04T12:58:17;100414.75;;;6.53;100.00
68941;BME280;55982;51.476;7.552;2023-03-04T13:01:08;100407.69;;;6.67;100.00
68941;BME280;55982;51.476;7.552;2023-03-04T13:03:54;100395.41;;;6.87;100.00
68941;BME280;55982;51.476;7.552;2023-03-04T13:06:37;100400.75;;;6.69;100.00
68941;BME280;55982;51.476;7.552;2023-03-04T13:12:03;100407.47;;;6.94;100.00
68941;BME280;55982;51.476;7.552;2023-03-04T13:14:31;100405.84;;;6.81;100.00
68941;BME280;55982;51.476;7.552;2023-03-04T13:17:17;100407.34;;;7.03;100.00
68941;BME280;55982;51.476;7.552;2023-03-04T13:20:50;100394.97;;;7.26;100.00
68941;BME280;55982;51.476;7.552;2023-03-04T13:23:01;100399.75;;;7.66;100.00
68941;BME280;55982;51.476;7.552;2023-03-04T13:43:43;100377.41;;;7.48;100.00
68941;BME280;55982;51.476;7.552;2023-03-04T13:51:44;100374.38;;;7.05;100.00
68941;BME280;55982;51.476;7.552;2023-03-04T13:54:28;100367.72;;;6.79;100.00
68941;BME280;55982;51.476;7.552;2023-03-04T13:57:17;100364.34;;;6.72;100.00
68941;BME280;55982;51.476;7.552;2023-03-04T13:59:45;100364.44;;;6.57;100.00
68941;BME280;55982;51.476;7.552;2023-03-04T14:04:55;100360.84;;;6.73;100.00
68941;BME280;55982;51.476;7.552;2023-03-04T14:07:29;100354.69;;;6.83;100.00
68941;BME280;55982;51.476;7.552;2023-03-04T14:12:55;100353.16;;;7.45;100.00
68941;BME280;55982;51.476;7.552;2023-03-04T14:15:23;100347.78;;;7.57;100.00
68941;BME280;55982;51.476;7.552;2023-03-04T14:17:57;100335.34;;;7.80;100.00
68941;BME280;55982;51.476;7.552;2023-03-04T14:20:27;100337.19;;;7.72;100.00
68941;BME280;55982;51.476;7.552;2023-03-04T14:22:54;100327.00;;;7.54;100.00
68941;BME280;55982;51.476;7.552;2023-03-04T14:25:26;100333.94;;;7.55;100.00